Denver, CO (80261)

9:21 PM MST on February 13, 2016 (GMT -0700)
Platt Park | | Change Station
CLOSE
Current Station
Personal Weather Station
Location: Denver, CO
Elevation: 5289 ft
Nearby Weather Stations

Elev 5289 ft 39.69 °N, 104.98 °W | Updated 13 minutes ago

Partly Cloudy
Partly Cloudy
56.1 °F
Feels Like 56.1 °F
N
6.0
Wind Variable Wind from NNE

Today
High -- | Low -- °F
--% Chance of Precip.
Yesterday
High -- | Low -- °F
Precip. -- in
Pressure 29.93 in
Visibility 10.0 miles
Clouds Few 13000 ft
Scattered Clouds 23000 ft
Dew Point 16 °F
Humidity 20%
Rainfall 0.00 in
Snow Depth Not available.
6:55 AM 5:33 PM
Waxing Crescent, 37% visible
METAR KAPA 140353Z VRB03KT 10SM FEW130 SCT230 10/M13 A2999 RMK AO2 SLP135 T01001133
Pressure 29.93 in
Visibility 10.0 miles
Clouds Few 13000 ft
Scattered Clouds 23000 ft
Dew Point 16 °F
Humidity 20%
Rainfall 0.00 in
Snow Depth Not available.
6:55 AM 5:33 PM
Waxing Crescent, 37% visible
METAR KAPA 140353Z VRB03KT 10SM FEW130 SCT230 10/M13 A2999 RMK AO2 SLP135 T01001133

10-Day Weather Forecast

Almanac

Astronomy

Feb. 13, 2016 Rise Set
Actual Time
Civil Twilight
Nautical Twilight
Astronomical Twilight
Moon
Length of Visible Light
Length of Day
Tomorrow will be .
, % of the Moon is Illuminated

Today's Extremes

State Highs State Lows

Community

WunderPhotos

Upload Photos

1,892,746 photos uploaded!

WunderBlog® & News

Nearby

Air Quality

  Air Quality AQ Index Pollutant
Not available.

Snow Depth

Station Depth Elevation

Earthquake Activity

City Distance Mag. Time & Date
Minimum magnitude displayed is 2.5.

Coastal Water Temperatures

Place Temperature

Stations

Nearby Weather Stations

Station Location Temp. Windchill Dew Point Humidity Wind Precip. Elev Updated Type
                   

Watches & Warnings

There are currently no watches in effect.